Available data for KLBE from the past 2 hours
LATROBE/WESTMORL, PA
Metar
KLBE 200355Z AUTO 26009KT 10SM FEW049 OVC060 00/M05 A3000 RMK AO2

03:55 UTC

Wind: 260° 9kt

Visibility: 10 SM

Sky: FEW 4900 ft

Temp: 0 deg C / 32 deg F

Dewpoint: -5 deg C / 23 deg F

Pressure: 30 inHg

TAF
KLBE 200323Z 2003/2024 28012KT P6SM OVC050 TEMPO 2003/2007 6SM -SN BKN025 FM201100 23007KT P6SM SCT035
Pireps (4)
EKN UA /OV 3856N 07936W /TM 0303 /FL360 /TP B738 /TB OCNL LGT/RM AWC-WEB
PIT UA /OV EWC180010/TM 0215/FL090/TP E170/SK OVC075-TOP080/IC NEG/RM DURC PIT-EWC
PIT UA /OV AGC/TM 0213/FL040/TP A319/SK OVC042/TA M06/WV 280030KT/IC LGT MXD 090-042
PIT UA /OV AGC/TM 0205/FL080/TP E75S/SK OVC067-TOP087/TA M06/IC LGT RIME 087-067/RM DURD IHD-PIT